Time;durP1;ratioP1;P1;durP2;ratioP2;P2;SDS_P1;SDS_P2;PMS_P1;PMS_P2;Temp;Humidity;BMP_temperature;BMP_pressure;BME280_temperature;BME280_humidity;BME280_pressure;Samples;Min_cycle;Max_cycle;Signal;HPM_P1;HPM_P2
2024/03/03 00:00:31;;;;;;;49.00;27.80;;;;;;;8.36;100.00;100292.29;106108;1259;96649;-81
2024/03/03 00:03:36;;;;;;;43.70;28.50;;;;;;;8.36;100.00;100290.81;106309;1259;101529;-80
2024/03/03 00:06:21;;;;;;;51.20;29.10;;;;;;;8.36;100.00;100290.27;106370;1259;99907;-80
2024/03/03 00:09:07;;;;;;;46.40;27.30;;;;;;;8.36;100.00;100291.00;106326;1263;99178;-80
2024/03/03 00:11:52;;;;;;;46.30;28.20;;;;;;;8.36;100.00;100290.67;106289;1259;97884;-82
2024/03/03 00:14:38;;;;;;;44.50;29.50;;;;;;;8.35;100.00;100290.05;106178;1260;96682;-82
2024/03/03 00:17:23;;;;;;;42.40;27.10;;;;;;;8.35;100.00;100287.82;106344;1259;102715;-81
2024/03/03 00:20:09;;;;;;;47.00;29.50;;;;;;;8.33;100.00;100284.77;106277;1259;99172;-81
2024/03/03 00:22:55;;;;;;;45.20;28.30;;;;;;;8.33;100.00;100284.09;106442;1260;99068;-81
2024/03/03 00:25:40;;;;;;;44.70;29.30;;;;;;;8.33;100.00;100279.27;106413;1264;97987;-80
2024/03/03 00:28:25;;;;;;;45.40;29.40;;;;;;;8.33;100.00;100278.42;106234;1260;97975;-80
2024/03/03 00:31:11;;;;;;;44.70;27.70;;;;;;;8.32;100.00;100278.12;106432;1259;102602;-80
2024/03/03 00:33:57;;;;;;;44.00;28.10;;;;;;;8.31;100.00;100277.34;106245;1259;100386;-83
2024/03/03 00:36:42;;;;;;;43.40;26.20;;;;;;;8.32;100.00;100277.50;106335;1262;98346;-80
2024/03/03 00:39:28;;;;;;;45.90;28.60;;;;;;;8.31;100.00;100272.56;106244;1259;98076;-82
2024/03/03 00:42:13;;;;;;;48.00;28.40;;;;;;;8.31;100.00;100271.13;106263;1259;98422;-82
2024/03/03 00:44:59;;;;;;;46.40;27.60;;;;;;;8.32;100.00;100274.09;106114;1264;101982;-82
2024/03/03 00:47:45;;;;;;;45.80;27.10;;;;;;;8.32;100.00;100269.46;106125;1259;99140;-81
2024/03/03 00:50:30;;;;;;;47.60;28.00;;;;;;;8.30;100.00;100268.11;106222;1259;99593;-81
2024/03/03 00:53:16;;;;;;;41.30;25.60;;;;;;;8.29;100.00;100265.02;106155;1259;98666;-81
2024/03/03 00:56:04;;;;;;;44.70;26.80;;;;;;;8.27;100.00;100265.45;106186;1259;98413;-80
2024/03/03 00:58:50;;;;;;;45.10;28.10;;;;;;;8.26;100.00;100264.30;105854;1259;101347;-80
2024/03/03 01:01:35;;;;;;;42.10;26.60;;;;;;;8.26;100.00;100262.54;106296;1259;99767;-81
2024/03/03 01:04:21;;;;;;;45.50;27.50;;;;;;;8.27;100.00;100255.84;106216;1265;99081;-81
2024/03/03 01:07:06;;;;;;;43.00;27.10;;;;;;;8.27;100.00;100261.20;106221;1259;98956;-81
2024/03/03 01:09:52;;;;;;;41.90;26.40;;;;;;;8.26;100.00;100252.94;106400;1259;98047;-80
2024/03/03 01:12:37;;;;;;;46.40;26.10;;;;;;;8.26;100.00;100252.60;106243;1264;102170;-81
2024/03/03 01:15:24;;;;;;;42.50;25.30;;;;;;;8.24;100.00;100249.88;106282;1264;100413;-81
2024/03/03 01:18:09;;;;;;;44.20;26.00;;;;;;;8.24;100.00;100244.42;106160;1265;99068;-82
2024/03/03 01:20:55;;;;;;;41.60;25.70;;;;;;;8.23;100.00;100242.88;106308;1265;101496;-80
2024/03/03 01:23:42;;;;;;;45.30;25.10;;;;;;;8.23;100.00;100243.98;106311;1263;97962;-80
2024/03/03 01:26:28;;;;;;;40.30;24.70;;;;;;;8.22;100.00;100238.15;106043;1259;102560;-81
2024/03/03 01:29:15;;;;;;;44.50;26.10;;;;;;;8.23;100.00;100239.52;106138;1260;99604;-83
2024/03/03 01:32:03;;;;;;;41.70;24.90;;;;;;;8.24;100.00;100237.52;106150;1259;97877;-82
2024/03/03 01:34:50;;;;;;;45.50;26.20;;;;;;;8.23;100.00;100237.58;106320;1264;98056;-82
2024/03/03 01:37:35;;;;;;;40.90;24.40;;;;;;;8.22;100.00;100237.36;106412;1263;98486;-82
2024/03/03 01:40:21;;;;;;;45.70;26.20;;;;;;;8.21;100.00;100237.80;106077;1265;102300;-81
2024/03/03 01:43:07;;;;;;;43.80;25.20;;;;;;;8.21;100.00;100230.66;106261;1264;99122;-81
2024/03/03 01:45:53;;;;;;;41.70;24.30;;;;;;;8.22;100.00;100231.53;106231;1259;97878;-80
2024/03/03 01:48:39;;;;;;;40.90;24.00;;;;;;;8.21;100.00;100231.27;106090;1259;98941;-81
2024/03/03 01:51:25;;;;;;;38.50;25.30;;;;;;;8.20;100.00;100234.42;106287;1259;98425;-81
2024/03/03 01:54:11;;;;;;;41.30;24.80;;;;;;;8.20;100.00;100232.25;106231;1261;102988;-81
2024/03/03 01:56:57;;;;;;;41.60;24.40;;;;;;;8.20;100.00;100232.45;106236;1264;100383;-80
2024/03/03 01:59:43;;;;;;;38.80;23.50;;;;;;;8.19;100.00;100230.25;106320;1263;98284;-81
2024/03/03 02:02:29;;;;;;;39.70;23.30;;;;;;;8.17;100.00;100229.04;106428;1265;99370;-81
2024/03/03 02:05:18;;;;;;;39.50;25.20;;;;;;;8.16;100.00;100228.98;106168;1273;98359;-80
2024/03/03 02:08:05;;;;;;;42.70;24.30;;;;;;;8.16;100.00;100223.88;106437;1266;101331;-81
2024/03/03 02:10:51;;;;;;;41.30;22.90;;;;;;;8.15;100.00;100219.71;106340;1259;100452;-80
2024/03/03 02:13:37;;;;;;;42.20;24.40;;;;;;;8.14;100.00;100218.23;106216;1263;99063;-80
2024/03/03 02:16:23;;;;;;;36.90;23.40;;;;;;;8.13;100.00;100218.63;106284;1264;98059;-80
2024/03/03 02:19:09;;;;;;;39.40;23.60;;;;;;;8.13;100.00;100217.47;106311;1259;98735;-81
2024/03/03 02:21:55;;;;;;;41.40;23.10;;;;;;;8.13;100.00;100217.67;106314;1265;102346;-81
2024/03/03 02:24:42;;;;;;;36.90;23.00;;;;;;;8.11;100.00;100217.98;106364;1263;99832;-80
2024/03/03 02:27:28;;;;;;;38.70;22.80;;;;;;;8.10;100.00;100218.83;106249;1267;98068;-80
2024/03/03 02:30:13;;;;;;;36.00;23.70;;;;;;;8.10;100.00;100218.56;106395;1264;97964;-81
2024/03/03 02:33:01;;;;;;;38.10;22.40;;;;;;;8.09;100.00;100217.64;106433;1261;97995;-80
2024/03/03 02:35:47;;;;;;;46.10;25.40;;;;;;;8.08;100.00;100214.19;106354;1263;101432;-81
2024/03/03 02:38:33;;;;;;;37.30;23.10;;;;;;;8.05;100.00;100214.09;106419;1262;99169;-80
2024/03/03 02:41:18;;;;;;;42.50;24.20;;;;;;;8.04;100.00;100211.70;106551;1261;97920;-81
2024/03/03 02:44:04;;;;;;;41.60;23.60;;;;;;;8.04;100.00;100213.47;106692;1260;98725;-81
2024/03/03 02:46:49;;;;;;;37.10;22.20;;;;;;;8.04;100.00;100217.05;106553;1263;98945;-81
2024/03/03 02:49:35;;;;;;;42.50;23.80;;;;;;;8.04;100.00;100218.31;106345;1265;101372;-81
2024/03/03 02:52:20;;;;;;;38.10;22.70;;;;;;;8.03;100.00;100219.69;106402;1263;99156;-81
2024/03/03 02:55:06;;;;;;;41.40;22.40;;;;;;;8.02;100.00;100220.90;106152;1267;98957;-80
2024/03/03 02:57:52;;;;;;;41.90;22.00;;;;;;;8.01;100.00;100219.60;106230;1267;98044;-80
2024/03/03 03:00:37;;;;;;;37.60;22.50;;;;;;;8.00;100.00;100225.22;106380;1259;98019;-80
2024/03/03 03:03:23;;;;;;;38.20;22.70;;;;;;;8.00;100.00;100219.58;106300;1261;102225;-81
2024/03/03 03:06:08;;;;;;;38.10;22.60;;;;;;;7.98;100.00;100218.56;106558;1264;99142;-80
2024/03/03 03:08:55;;;;;;;40.30;22.50;;;;;;;7.95;100.00;100216.68;106460;1262;97830;-80
2024/03/03 03:11:40;;;;;;;37.80;21.20;;;;;;;7.95;100.00;100217.70;106515;1265;97948;-81
2024/03/03 03:14:28;;;;;;;40.30;23.10;;;;;;;7.95;100.00;100218.35;106500;1259;98050;-81
2024/03/03 03:17:14;;;;;;;41.00;23.00;;;;;;;7.96;100.00;100223.00;106455;1265;101435;-81
2024/03/03 03:19:59;;;;;;;37.90;22.20;;;;;;;7.95;100.00;100226.23;106269;1264;100435;-80
2024/03/03 03:22:45;;;;;;;41.60;24.90;;;;;;;7.95;100.00;100226.52;106262;1264;97967;-81
2024/03/03 03:25:30;;;;;;;37.50;24.20;;;;;;;7.94;100.00;100227.20;106376;1264;97864;-80
2024/03/03 03:28:16;;;;;;;40.50;21.60;;;;;;;7.94;100.00;100224.16;106318;1265;98960;-81
2024/03/03 03:31:02;;;;;;;36.60;21.90;;;;;;;7.93;100.00;100226.61;106327;1263;102593;-81
2024/03/03 03:33:47;;;;;;;39.20;22.80;;;;;;;7.92;100.00;100230.41;106447;1265;100460;-79
2024/03/03 03:36:33;;;;;;;36.60;22.50;;;;;;;7.90;100.00;100228.57;106415;1264;97958;-80
2024/03/03 03:39:19;;;;;;;37.50;22.10;;;;;;;7.90;100.00;100226.63;106354;1259;97862;-81
2024/03/03 03:42:05;;;;;;;40.10;22.40;;;;;;;7.90;100.00;100225.49;106494;1261;98115;-79
2024/03/03 03:44:51;;;;;;;40.80;25.40;;;;;;;7.89;100.00;100225.23;106359;1259;101404;-81
2024/03/03 03:47:36;;;;;;;41.20;24.80;;;;;;;7.88;100.00;100227.30;106376;1267;99087;-81
2024/03/03 03:50:22;;;;;;;42.70;24.90;;;;;;;7.88;100.00;100226.48;106335;1266;98000;-81
2024/03/03 03:53:08;;;;;;;43.20;25.10;;;;;;;7.87;100.00;100222.12;106266;1260;98064;-81
2024/03/03 03:55:54;;;;;;;43.90;24.80;;;;;;;7.87;100.00;100222.52;106499;1261;98504;-80
2024/03/03 03:58:39;;;;;;;43.60;25.60;;;;;;;7.85;100.00;100219.87;106292;1264;101374;-80
2024/03/03 04:01:28;;;;;;;52.50;27.80;;;;;;;7.84;100.00;100219.31;106314;1263;99281;-82
2024/03/03 04:04:14;;;;;;;41.90;25.60;;;;;;;7.84;100.00;100221.29;106645;1263;97859;-83
2024/03/03 04:07:01;;;;;;;45.60;27.80;;;;;;;7.82;100.00;100220.05;106217;1265;97963;-82
2024/03/03 04:09:46;;;;;;;70.70;35.60;;;;;;;7.82;100.00;100216.69;108185;1263;94970;-82
2024/03/03 04:12:32;;;;;;;69.70;37.10;;;;;;;7.79;100.00;100219.60;106445;1264;101343;-80
2024/03/03 04:15:18;;;;;;;97.60;43.50;;;;;;;7.78;100.00;100216.75;106202;1266;100453;-80
2024/03/03 04:18:04;;;;;;;73.00;36.70;;;;;;;7.77;100.00;100215.28;106260;1263;99051;-80
2024/03/03 04:20:50;;;;;;;47.30;28.10;;;;;;;7.75;100.00;100215.21;106317;1265;97966;-81
2024/03/03 04:23:37;;;;;;;47.40;27.00;;;;;;;7.72;100.00;100213.60;106334;1261;97986;-80
2024/03/03 04:26:22;;;;;;;42.40;25.10;;;;;;;7.70;100.00;100216.65;106309;1263;101347;-80
2024/03/03 04:29:08;;;;;;;40.50;24.00;;;;;;;7.69;100.00;100216.77;106289;1261;99905;-81
2024/03/03 04:31:53;;;;;;;44.40;25.70;;;;;;;7.68;100.00;100218.95;106391;1261;97973;-81
2024/03/03 04:34:39;;;;;;;43.60;24.10;;;;;;;7.68;100.00;100222.68;106327;1264;97976;-81
2024/03/03 04:37:25;;;;;;;39.80;24.20;;;;;;;7.67;100.00;100223.40;106360;1260;98402;-80
2024/03/03 04:40:11;;;;;;;42.90;24.00;;;;;;;7.65;100.00;100222.17;106399;1260;101612;-81
2024/03/03 04:42:56;;;;;;;37.40;24.20;;;;;;;7.63;100.00;100219.76;106370;1263;99686;-81
2024/03/03 04:45:42;;;;;;;38.40;25.80;;;;;;;7.60;100.00;100220.88;106254;1263;97963;-82
2024/03/03 04:48:28;;;;;;;39.80;25.60;;;;;;;7.57;100.00;100218.35;106285;1261;98856;-82
2024/03/03 04:51:13;;;;;;;39.70;24.20;;;;;;;7.57;100.00;100219.47;106265;1261;98419;-82
2024/03/03 04:53:59;;;;;;;42.00;24.10;;;;;;;7.57;100.00;100220.70;106332;1260;102783;-82
2024/03/03 04:56:45;;;;;;;36.90;25.20;;;;;;;7.57;100.00;100221.56;106475;1261;99150;-82
2024/03/03 04:59:31;;;;;;;41.60;25.50;;;;;;;7.56;100.00;100219.67;106248;1267;97916;-82
2024/03/03 05:02:19;;;;;;;42.90;25.50;;;;;;;7.55;100.00;100221.61;106335;1260;97967;-81
2024/03/03 05:05:06;;;;;;;41.90;26.00;;;;;;;7.55;100.00;100217.75;106255;1261;98685;-81
2024/03/03 05:07:52;;;;;;;42.10;24.90;;;;;;;7.54;100.00;100222.05;106390;1263;101428;-81
2024/03/03 05:10:38;;;;;;;42.10;25.10;;;;;;;7.54;100.00;100220.98;106398;1261;99945;-79
2024/03/03 05:13:24;;;;;;;40.30;25.40;;;;;;;7.53;100.00;100220.71;106549;1261;99364;-80
2024/03/03 05:16:09;;;;;;;46.00;26.60;;;;;;;7.51;100.00;100217.27;106725;1261;98072;-80
2024/03/03 05:18:55;;;;;;;39.40;26.20;;;;;;;7.50;100.00;100218.11;106344;1260;98509;-81
2024/03/03 05:21:41;;;;;;;42.10;26.00;;;;;;;7.50;100.00;100220.48;106328;1260;101345;-81
2024/03/03 05:24:27;;;;;;;41.00;26.20;;;;;;;7.48;100.00;100222.02;106254;1260;100535;-80
2024/03/03 05:27:12;;;;;;;41.20;25.20;;;;;;;7.49;100.00;100221.45;106354;1260;99118;-81
2024/03/03 05:29:58;;;;;;;45.50;27.30;;;;;;;7.50;100.00;100227.70;106379;1263;97906;-79
2024/03/03 05:32:44;;;;;;;47.50;26.50;;;;;;;7.50;100.00;100228.01;106590;1260;99573;-81
2024/03/03 05:35:30;;;;;;;44.40;26.20;;;;;;;7.50;100.00;100224.68;106367;1260;102714;-80
2024/03/03 05:38:16;;;;;;;41.20;26.50;;;;;;;7.50;100.00;100224.64;106422;1260;99645;-81
2024/03/03 05:41:01;;;;;;;44.20;27.10;;;;;;;7.52;100.00;100224.30;106320;1260;98992;-81
2024/03/03 05:43:47;;;;;;;51.00;31.30;;;;;;;7.52;100.00;100220.52;106313;1264;98090;-81
2024/03/03 05:46:34;;;;;;;48.80;28.50;;;;;;;7.51;100.00;100233.99;106434;1260;98009;-81
2024/03/03 05:49:20;;;;;;;51.30;30.40;;;;;;;7.49;100.00;100231.84;106352;1259;102952;-82
2024/03/03 05:52:05;;;;;;;50.70;32.10;;;;;;;7.49;100.00;100232.81;106356;1263;99205;-80
2024/03/03 05:54:50;;;;;;;39.50;26.00;;;;;;;7.48;100.00;100236.81;106475;1259;99069;-81
2024/03/03 05:57:36;;;;;;;47.70;28.40;;;;;;;7.47;100.00;100240.08;106432;1263;97945;-80
2024/03/03 06:00:22;;;;;;;43.60;27.60;;;;;;;7.47;100.00;100240.11;106376;1267;98316;-81
2024/03/03 06:03:08;;;;;;;40.00;27.60;;;;;;;7.48;100.00;100240.19;106353;1265;101491;-81
2024/03/03 06:05:54;;;;;;;45.80;28.60;;;;;;;7.48;100.00;100241.13;106337;1260;99057;-80
2024/03/03 06:08:41;;;;;;;44.90;27.50;;;;;;;7.48;100.00;100241.60;106372;1260;97914;-82
2024/03/03 06:11:27;;;;;;;41.60;27.10;;;;;;;7.46;100.00;100238.25;106754;1259;97838;-81
2024/03/03 06:14:14;;;;;;;41.50;26.40;;;;;;;7.45;100.00;100239.27;106520;1260;97765;-83
2024/03/03 06:17:00;;;;;;;45.90;27.30;;;;;;;7.47;100.00;100240.72;106399;1259;101416;-80
2024/03/03 06:19:46;;;;;;;44.20;27.30;;;;;;;7.46;100.00;100237.73;106456;1261;99672;-80
2024/03/03 06:22:32;;;;;;;42.50;25.80;;;;;;;7.47;100.00;100238.38;106360;1261;98843;-82
2024/03/03 06:25:18;;;;;;;46.40;27.70;;;;;;;7.49;100.00;100237.77;106463;1262;97995;-81
2024/03/03 06:28:04;;;;;;;40.80;27.00;;;;;;;7.50;100.00;100235.83;106537;1263;98446;-80
2024/03/03 06:30:49;;;;;;;45.10;27.10;;;;;;;7.50;100.00;100231.23;106469;1260;102678;-80
2024/03/03 06:33:35;;;;;;;46.70;27.20;;;;;;;7.50;100.00;100231.80;106477;1260;99914;-79
2024/03/03 06:36:20;;;;;;;45.50;27.50;;;;;;;7.50;100.00;100230.56;106337;1261;98545;-81
2024/03/03 06:39:10;;;;;;;51.20;27.60;;;;;;;7.49;100.00;100236.14;106454;1264;97904;-80
2024/03/03 06:41:55;;;;;;;50.50;31.00;;;;;;;7.50;100.00;100240.16;106916;1263;97968;-79
2024/03/03 06:44:42;;;;;;;54.00;31.00;;;;;;;7.52;100.00;100240.38;106373;1259;101458;-80
2024/03/03 06:47:27;;;;;;;54.90;32.20;;;;;;;7.52;100.00;100240.26;106486;1262;100311;-81
2024/03/03 06:50:13;;;;;;;47.10;28.90;;;;;;;7.51;100.00;100242.12;106306;1264;99058;-81
2024/03/03 06:53:00;;;;;;;46.50;29.50;;;;;;;7.52;100.00;100238.81;106388;1259;97982;-80
2024/03/03 06:55:45;;;;;;;46.60;30.00;;;;;;;7.55;100.00;100238.50;106454;1264;98002;-81
2024/03/03 06:58:31;;;;;;;48.90;30.10;;;;;;;7.58;100.00;100243.88;106336;1260;101370;-81
2024/03/03 07:01:16;;;;;;;54.20;33.00;;;;;;;7.59;100.00;100243.50;106394;1259;99825;-82
2024/03/03 07:04:35;;;;;;;50.10;31.70;;;;;;;7.61;100.00;100245.96;106404;1261;99092;-80
2024/03/03 07:07:14;;;;;;;55.90;32.90;;;;;;;7.64;100.00;100244.55;106365;1260;98489;-81
2024/03/03 07:09:59;;;;;;;50.90;31.70;;;;;;;7.68;100.00;100244.02;106461;1260;97961;-79
2024/03/03 07:12:44;;;;;;;58.90;34.30;;;;;;;7.72;100.00;100240.35;106337;1263;101502;-79
2024/03/03 07:15:30;;;;;;;57.60;34.40;;;;;;;7.76;100.00;100239.80;106405;1263;99153;-79
2024/03/03 07:18:16;;;;;;;64.10;37.20;;;;;;;7.79;100.00;100240.77;105722;1265;97843;-86
2024/03/03 07:21:02;;;;;;;56.00;34.10;;;;;;;7.84;100.00;100242.28;106089;1266;96613;-85
2024/03/03 07:23:48;;;;;;;61.30;38.20;;;;;;;7.86;100.00;100243.27;106166;1260;98408;-86
2024/03/03 07:26:34;;;;;;;74.30;41.40;;;;;;;7.87;100.00;100244.05;106287;1259;101284;-89
2024/03/03 07:29:20;;;;;;;70.90;40.70;;;;;;;7.91;100.00;100247.25;106469;1260;100657;-88
2024/03/03 07:32:06;;;;;;;65.00;38.60;;;;;;;7.97;100.00;100249.77;106569;1259;99904;-86
2024/03/03 07:34:52;;;;;;;53.50;34.20;;;;;;;8.01;100.00;100251.08;106375;1259;98048;-88
2024/03/03 07:37:39;;;;;;;50.50;33.10;;;;;;;8.02;100.00;100249.90;106450;1260;98018;-84
2024/03/03 07:40:24;;;;;;;54.30;33.60;;;;;;;8.05;100.00;100254.19;106141;1259;101353;-87
2024/03/03 07:43:11;;;;;;;47.80;30.40;;;;;;;8.07;100.00;100256.06;106551;1260;99944;-86
2024/03/03 07:45:58;;;;;;;54.10;32.80;;;;;;;8.09;100.00;100254.05;106318;1260;99276;-84
2024/03/03 07:48:44;;;;;;;49.50;31.70;;;;;;;8.10;100.00;100256.87;105898;1261;97900;-85
2024/03/03 07:51:30;;;;;;;53.30;33.60;;;;;;;8.12;100.00;100259.02;106002;1262;98512;-84
2024/03/03 07:54:17;;;;;;;51.80;33.80;;;;;;;8.11;100.00;100262.87;105988;1261;102498;-84
2024/03/03 07:57:04;;;;;;;54.20;31.90;;;;;;;8.10;100.00;100264.09;105964;1259;100177;-83
2024/03/03 07:59:49;;;;;;;50.40;31.60;;;;;;;8.11;100.00;100264.51;106102;1264;97976;-84
2024/03/03 08:02:35;;;;;;;50.40;30.70;;;;;;;8.12;100.00;100264.86;106342;1260;98026;-88
2024/03/03 08:05:21;;;;;;;51.10;31.30;;;;;;;8.16;100.00;100263.34;106079;1260;99347;-82
2024/03/03 08:08:07;;;;;;;51.30;34.30;;;;;;;8.20;100.00;100260.23;105954;1263;102247;-82
2024/03/03 08:10:52;;;;;;;50.40;32.30;;;;;;;8.25;100.00;100250.23;105916;1259;99768;-83
2024/03/03 08:13:38;;;;;;;50.50;32.40;;;;;;;8.30;100.00;100250.63;105864;1259;99066;-83
2024/03/03 08:16:24;;;;;;;51.40;30.60;;;;;;;8.35;100.00;100249.39;105830;1259;97977;-84
2024/03/03 08:19:10;;;;;;;51.80;33.10;;;;;;;8.37;100.00;100250.17;105928;1263;97954;-83
2024/03/03 08:21:56;;;;;;;51.60;30.90;;;;;;;8.42;100.00;100252.55;106045;1259;101392;-84
2024/03/03 08:24:41;;;;;;;56.90;33.80;;;;;;;8.46;100.00;100249.65;105881;1264;99098;-84
2024/03/03 08:27:28;;;;;;;52.90;32.30;;;;;;;8.48;100.00;100246.77;105995;1264;97978;-82
2024/03/03 08:30:14;;;;;;;51.70;32.20;;;;;;;8.52;100.00;100245.52;106172;1259;98066;-83
2024/03/03 08:33:00;;;;;;;50.50;32.30;;;;;;;8.57;100.00;100242.10;106621;1261;97803;-84
2024/03/03 08:35:45;;;;;;;51.60;31.90;;;;;;;8.62;100.00;100238.07;106293;1263;102161;-83
2024/03/03 08:38:31;;;;;;;54.50;32.20;;;;;;;8.66;100.00;100238.83;106093;1260;99163;-83
2024/03/03 08:41:17;;;;;;;49.00;30.60;;;;;;;8.71;100.00;100237.88;106237;1261;97967;-82
2024/03/03 08:44:03;;;;;;;49.80;30.40;;;;;;;8.75;100.00;100239.16;106045;1264;97900;-82
2024/03/03 08:46:50;;;;;;;50.10;31.60;;;;;;;8.79;100.00;100241.27;105842;1259;98490;-84
2024/03/03 08:49:36;;;;;;;49.00;31.60;;;;;;;8.82;100.00;100244.27;105612;1264;102741;-82
2024/03/03 08:52:21;;;;;;;51.10;33.40;;;;;;;8.83;100.00;100245.31;105834;1264;99174;-81
2024/03/03 08:55:08;;;;;;;53.00;32.60;;;;;;;8.83;100.00;100249.22;105890;1267;97958;-83
2024/03/03 08:57:54;;;;;;;44.20;30.60;;;;;;;8.85;100.00;100248.34;105746;1259;97955;-82
2024/03/03 09:00:40;;;;;;;51.00;32.80;;;;;;;8.88;100.00;100245.43;106163;1259;97986;-82
2024/03/03 09:03:25;;;;;;;65.80;38.20;;;;;;;8.93;100.00;100245.35;106117;1259;102103;-81
2024/03/03 09:06:11;;;;;;;87.30;49.20;;;;;;;8.99;100.00;100245.71;105953;1259;99129;-81
2024/03/03 09:08:57;;;;;;;83.50;46.70;;;;;;;9.06;100.00;100245.35;105965;1261;97973;-84
2024/03/03 09:11:47;;;;;;;134.70;67.40;;;;;;;9.14;100.00;100246.65;106055;1260;98816;-84
2024/03/03 09:14:33;;;;;;;79.80;46.10;;;;;;;9.23;100.00;100248.98;106080;1264;98015;-83
2024/03/03 09:17:20;;;;;;;66.60;38.70;;;;;;;9.31;100.00;100248.48;106033;1260;102655;-82
2024/03/03 09:20:07;;;;;;;60.40;36.20;;;;;;;9.41;100.00;100248.67;105915;1259;100170;-82
2024/03/03 09:22:53;;;;;;;54.50;35.90;;;;;;;9.54;100.00;100249.94;106115;1260;97973;-88
2024/03/03 09:25:39;;;;;;;55.30;34.50;;;;;;;9.69;100.00;100252.02;105980;1259;97977;-82
2024/03/03 09:28:25;;;;;;;56.10;34.50;;;;;;;9.82;100.00;100247.15;107023;1259;98348;-85
2024/03/03 09:31:11;;;;;;;51.10;32.00;;;;;;;9.92;100.00;100246.23;105890;1264;101398;-82
2024/03/03 09:33:59;;;;;;;51.60;32.60;;;;;;;9.99;100.00;100245.46;106103;1259;99067;-83
2024/03/03 09:36:44;;;;;;;53.90;33.20;;;;;;;10.05;100.00;100245.29;105999;1265;99223;-84
2024/03/03 09:39:30;;;;;;;57.20;32.00;;;;;;;10.10;100.00;100244.20;105837;1264;97990;-84
2024/03/03 09:42:16;;;;;;;54.00;31.80;;;;;;;10.12;100.00;100245.19;105811;1259;97924;-83
2024/03/03 09:45:10;;;;;;;54.10;32.50;;;;;;;10.16;100.00;100250.48;105830;1260;102700;-82
2024/03/03 09:48:02;;;;;;;56.20;32.20;;;;;;;10.20;100.00;100252.90;105769;1259;101244;-83
2024/03/03 09:50:51;;;;;;;51.00;32.30;;;;;;;10.22;99.80;100254.25;105737;1262;99336;-84
2024/03/03 09:53:40;;;;;;;52.40;33.10;;;;;;;10.25;99.93;100257.64;105834;1265;98102;-85
2024/03/03 09:56:29;;;;;;;50.50;31.90;;;;;;;10.30;99.93;100257.64;105781;1259;97910;-85
2024/03/03 09:59:15;;;;;;;46.80;31.70;;;;;;;10.33;99.83;100254.02;106142;1259;101403;-84
2024/03/03 10:02:01;;;;;;;51.50;32.50;;;;;;;10.38;99.97;100255.89;105842;1260;100807;-83
2024/03/03 10:04:48;;;;;;;44.30;29.20;;;;;;;10.43;99.68;100253.09;106092;1260;97966;-83
2024/03/03 10:07:46;;;;;;;45.90;30.50;;;;;;;10.46;99.43;100249.00;105735;1264;98032;-82
2024/03/03 10:10:35;;;;;;;53.50;31.50;;;;;;;10.47;98.96;100252.59;105899;1259;97965;-84
2024/03/03 10:13:21;;;;;;;50.60;30.70;;;;;;;10.48;98.78;100248.73;105835;1259;101324;-82
2024/03/03 10:16:09;;;;;;;57.90;35.00;;;;;;;10.50;98.82;100247.02;106100;1261;100360;-83
2024/03/03 10:18:59;;;;;;;51.70;33.90;;;;;;;10.54;98.15;100243.21;105801;1259;106452;-82
2024/03/03 10:21:47;;;;;;;47.80;31.70;;;;;;;10.56;98.36;100245.39;106131;1260;98493;-83
2024/03/03 10:24:33;;;;;;;55.90;33.60;;;;;;;10.60;98.36;100245.56;105970;1259;98476;-82
2024/03/03 10:27:21;;;;;;;54.60;32.60;;;;;;;10.67;98.06;100244.87;105770;1260;101441;-81
2024/03/03 10:30:07;;;;;;;52.10;30.90;;;;;;;10.72;97.78;100244.28;106724;1262;99678;-83
2024/03/03 10:33:02;;;;;;;50.30;32.00;;;;;;;10.74;97.87;100236.47;105819;1264;99536;-82
2024/03/03 10:36:06;;;;;;;46.90;30.50;;;;;;;10.69;96.77;100234.13;106974;1259;97990;-84
2024/03/03 10:38:55;;;;;;;46.10;30.90;;;;;;;10.63;96.68;100234.66;105781;1259;98494;-81
2024/03/03 10:41:41;;;;;;;50.40;31.10;;;;;;;10.58;96.28;100228.57;105785;1259;102689;-83
2024/03/03 10:44:34;;;;;;;48.10;29.50;;;;;;;10.55;96.25;100229.53;105848;1260;99142;-83
2024/03/03 10:47:20;;;;;;;49.40;32.70;;;;;;;10.56;96.75;100231.36;105757;1259;98687;-83
2024/03/03 10:50:11;;;;;;;46.80;31.10;;;;;;;10.64;97.42;100231.00;106269;1261;98026;-84
2024/03/03 10:53:03;;;;;;;45.20;29.90;;;;;;;10.73;97.71;100227.11;105972;1260;97919;-85
2024/03/03 10:55:49;;;;;;;52.60;33.00;;;;;;;10.79;97.34;100226.14;105804;1261;102096;-84
2024/03/03 10:58:37;;;;;;;50.10;32.70;;;;;;;10.81;96.72;100226.77;106038;1259;99264;-84
2024/03/03 11:01:24;;;;;;;49.10;32.30;;;;;;;10.78;96.21;100226.76;106206;1266;97929;-85
2024/03/03 11:04:13;;;;;;;49.80;31.10;;;;;;;10.75;95.84;100222.58;105942;1263;97992;-84
2024/03/03 11:07:05;;;;;;;47.20;32.30;;;;;;;10.72;95.34;100227.95;105854;1262;99812;-83
2024/03/03 11:09:52;;;;;;;45.50;30.30;;;;;;;10.73;95.70;100222.84;105689;1267;102620;-82
2024/03/03 11:12:42;;;;;;;58.60;35.80;;;;;;;10.80;96.44;100213.09;105831;1259;99227;-82
2024/03/03 11:15:29;;;;;;;50.50;31.40;;;;;;;10.93;97.05;100210.48;106050;1259;98495;-83
2024/03/03 11:18:20;;;;;;;50.60;33.00;;;;;;;11.03;96.49;100212.30;106205;1265;98064;-82
2024/03/03 11:21:09;;;;;;;46.50;31.90;;;;;;;11.12;96.11;100205.99;106576;1263;97749;-80
2024/03/03 11:24:01;;;;;;;45.50;29.60;;;;;;;11.22;96.29;100204.07;106433;1259;101414;-80
2024/03/03 11:26:54;;;;;;;47.50;31.10;;;;;;;11.34;96.18;100203.52;106527;1259;99267;-82
2024/03/03 11:29:45;;;;;;;47.50;30.10;;;;;;;11.42;95.40;100202.44;106438;1259;98082;-81
2024/03/03 11:32:36;;;;;;;52.00;31.70;;;;;;;11.50;94.90;100202.59;106402;1259;97890;-79
2024/03/03 11:35:22;;;;;;;47.50;29.40;;;;;;;11.52;94.37;100200.27;106396;1260;98362;-82
2024/03/03 11:38:08;;;;;;;47.90;30.80;;;;;;;11.53;94.21;100199.41;106158;1259;102099;-80
2024/03/03 11:40:54;;;;;;;46.10;29.40;;;;;;;11.53;93.79;100195.79;106015;1261;99144;-81
2024/03/03 11:43:40;;;;;;;46.10;30.00;;;;;;;11.54;93.99;100188.12;105915;1260;98960;-83
2024/03/03 11:46:49;;;;;;;52.30;31.50;;;;;;;11.63;94.09;100182.36;106036;1260;98021;-80
2024/03/03 11:49:41;;;;;;;50.40;30.70;;;;;;;11.70;93.91;100175.50;105875;1263;98498;-81
2024/03/03 11:52:47;;;;;;;49.10;29.20;;;;;;;11.78;94.04;100170.10;105733;1263;102579;-81
2024/03/03 11:55:40;;;;;;;50.60;30.40;;;;;;;11.86;93.79;100171.23;105850;1259;99191;-79
2024/03/03 11:58:31;;;;;;;46.00;29.60;;;;;;;11.94;93.35;100164.17;105906;1264;97968;-80
2024/03/03 12:01:21;;;;;;;46.90;29.30;;;;;;;12.05;93.73;100161.45;105933;1259;97933;-84
2024/03/03 12:04:08;;;;;;;49.30;30.20;;;;;;;12.17;93.82;100157.48;105842;1259;98066;-78
2024/03/03 12:06:55;;;;;;;44.90;29.30;;;;;;;12.28;93.19;100156.11;106039;1259;101408;-85
2024/03/03 12:09:42;;;;;;;43.40;29.80;;;;;;;12.35;92.71;100151.67;106112;1259;100298;-83
2024/03/03 12:12:28;;;;;;;43.20;28.70;;;;;;;12.42;92.24;100150.42;106159;1259;97984;-83
2024/03/03 12:15:19;;;;;;;47.20;28.50;;;;;;;12.47;91.73;100144.55;106202;1259;97999;-86
2024/03/03 12:18:10;;;;;;;45.40;29.20;;;;;;;12.52;91.40;100142.19;106116;1260;97885;-83
2024/03/03 12:20:57;;;;;;;45.90;28.80;;;;;;;12.56;91.17;100141.02;106468;1259;102667;-78
2024/03/03 12:23:43;;;;;;;42.50;26.80;;;;;;;12.62;90.77;100138.98;106167;1259;99124;-79
2024/03/03 12:26:28;;;;;;;43.00;29.20;;;;;;;12.68;91.19;100134.17;106300;1259;97976;-83